Time,TemperatureF,DewpointF,PressureIn,WindDirection,WindDirectionDegrees,WindSpeedMPH,WindSpeedGustMPH,Humidity,HourlyPrecipIn,Conditions,Clouds,dailyrainin,SoftwareType,DateUTC
2013-05-15 00:00:00,46.0,32.0,-100.00,WSW,239,0.0,5.0,57,-99.99,,,-99.99,,2013-05-15 04:00:00,
2013-05-15 00:33:00,46.0,32.0,-100.00,WSW,239,0.0,5.0,57,-99.99,,,-99.99,,2013-05-15 04:33:00,
2013-05-15 00:43:00,46.0,32.0,-100.00,WSW,239,0.0,5.0,57,-99.99,,,-99.99,,2013-05-15 04:43:00,
2013-05-15 00:52:00,46.0,32.0,-100.00,WSW,239,0.0,5.0,57,-99.99,,,-99.99,,2013-05-15 04:52:00,
2013-05-15 01:00:00,45.0,33.0,-100.00,SW,230,0.0,7.0,61,-99.99,,,-99.99,,2013-05-15 05:00:00,
2013-05-15 01:32:00,45.0,33.0,-100.00,SW,230,0.0,7.0,61,-99.99,,,-99.99,,2013-05-15 05:32:00,
2013-05-15 01:42:00,45.0,33.0,-100.00,SW,230,0.0,7.0,61,-99.99,,,-99.99,,2013-05-15 05:42:00,
2013-05-15 01:52:00,45.0,33.0,-100.00,SW,230,0.0,7.0,61,-99.99,,,-99.99,,2013-05-15 05:52:00,
2013-05-15 02:00:00,46.0,38.0,-100.00,SSW,197,5.0,5.0,72,-99.99,,,-99.99,,2013-05-15 06:00:00,
2013-05-15 02:32:00,46.0,38.0,-100.00,SSW,197,5.0,5.0,72,-99.99,,,-99.99,,2013-05-15 06:32:00,
2013-05-15 02:42:00,46.0,38.0,-100.00,SSW,197,5.0,5.0,72,-99.99,,,-99.99,,2013-05-15 06:42:00,
2013-05-15 02:52:00,46.0,38.0,-100.00,SSW,197,5.0,5.0,72,-99.99,,,-99.99,,2013-05-15 06:52:00,
2013-05-15 03:00:00,48.0,40.0,-100.00,SW,230,0.0,6.0,73,-99.99,,,-99.99,,2013-05-15 07:00:00,
2013-05-15 03:22:00,48.0,40.0,-100.00,SW,230,0.0,6.0,73,-99.99,,,-99.99,,2013-05-15 07:22:00,
2013-05-15 03:32:00,48.0,40.0,-100.00,SW,230,0.0,6.0,73,-99.99,,,-99.99,,2013-05-15 07:32:00,
2013-05-15 03:42:00,48.0,40.0,-100.00,SW,230,0.0,6.0,73,-99.99,,,-99.99,,2013-05-15 07:42:00,
2013-05-15 03:52:00,48.0,40.0,-100.00,SW,230,0.0,6.0,73,-99.99,,,-99.99,,2013-05-15 07:52:00,
2013-05-15 04:00:00,50.0,41.0,-100.00,WNW,288,0.0,6.0,71,-99.99,,,-99.99,,2013-05-15 08:00:00,
2013-05-15 04:32:00,50.0,41.0,-100.00,WNW,288,0.0,6.0,71,-99.99,,,-99.99,,2013-05-15 08:32:00,
2013-05-15 04:42:00,50.0,41.0,-100.00,WNW,288,0.0,6.0,71,-99.99,,,-99.99,,2013-05-15 08:42:00,
2013-05-15 04:53:00,50.0,41.0,-100.00,WNW,288,0.0,6.0,71,-99.99,,,-99.99,,2013-05-15 08:53:00,
2013-05-15 05:00:00,51.0,43.0,-100.00,South,169,0.0,5.0,74,-99.99,,,-99.99,,2013-05-15 09:00:00,
2013-05-15 05:22:00,51.0,43.0,-100.00,South,169,0.0,5.0,74,-99.99,,,-99.99,,2013-05-15 09:22:00,
2013-05-15 05:33:00,51.0,43.0,-100.00,South,169,0.0,5.0,74,-99.99,,,-99.99,,2013-05-15 09:33:00,
2013-05-15 05:42:00,51.0,43.0,-100.00,South,169,0.0,5.0,74,-99.99,,,-99.99,,2013-05-15 09:42:00,
2013-05-15 05:53:00,51.0,43.0,-100.00,South,169,0.0,5.0,74,-99.99,,,-99.99,,2013-05-15 09:53:00,
2013-05-15 06:00:00,52.0,45.0,-100.00,South,185,0.0,0.0,77,-99.99,,,-99.99,,2013-05-15 10:00:00,
2013-05-15 06:23:00,52.0,45.0,-100.00,South,185,0.0,0.0,77,-99.99,,,-99.99,,2013-05-15 10:23:00,
2013-05-15 06:32:00,52.0,45.0,-100.00,South,185,0.0,0.0,77,-99.99,,,-99.99,,2013-05-15 10:32:00,
2013-05-15 06:43:00,52.0,45.0,-100.00,South,185,0.0,0.0,77,-99.99,,,-99.99,,2013-05-15 10:43:00,
2013-05-15 06:52:00,52.0,45.0,-100.00,South,185,0.0,0.0,77,-99.99,,,-99.99,,2013-05-15 10:52:00,
2013-05-15 07:00:00,53.0,46.0,-100.00,SSW,199,0.0,7.0,75,-99.99,,,-99.99,,2013-05-15 11:00:00,
2013-05-15 07:29:00,53.0,46.0,-100.00,SSW,199,0.0,7.0,75,-99.99,,,-99.99,,2013-05-15 11:29:00,
2013-05-15 07:39:00,53.0,46.0,-100.00,SSW,199,0.0,7.0,75,-99.99,,,-99.99,,2013-05-15 11:39:00,
2013-05-15 07:50:00,53.0,46.0,-100.00,SSW,199,0.0,7.0,75,-99.99,,,-99.99,,2013-05-15 11:50:00,
2013-05-15 08:00:00,56.0,46.0,-100.00,SSW,209,5.0,11.0,67,-99.99,,,-99.99,,2013-05-15 12:00:00,
2013-05-15 08:30:00,56.0,46.0,-100.00,SSW,209,5.0,11.0,67,-99.99,,,-99.99,,2013-05-15 12:30:00,
2013-05-15 08:38:00,56.0,46.0,-100.00,SSW,209,5.0,11.0,67,-99.99,,,-99.99,,2013-05-15 12:38:00,
2013-05-15 08:49:00,56.0,46.0,-100.00,SSW,209,5.0,11.0,67,-99.99,,,-99.99,,2013-05-15 12:49:00,
2013-05-15 09:00:00,59.0,43.0,-100.00,SW,227,5.0,14.0,56,-99.99,,,-99.99,,2013-05-15 13:00:00,
2013-05-15 09:28:00,59.0,43.0,-100.00,SW,227,5.0,14.0,56,-99.99,,,-99.99,,2013-05-15 13:28:00,
2013-05-15 09:37:00,59.0,43.0,-100.00,SW,227,5.0,14.0,56,-99.99,,,-99.99,,2013-05-15 13:37:00,
2013-05-15 09:48:00,59.0,43.0,-100.00,SW,227,5.0,14.0,56,-99.99,,,-99.99,,2013-05-15 13:48:00,
2013-05-15 10:00:00,60.0,44.0,-100.00,South,176,3.0,18.0,54,-99.99,,,-99.99,,2013-05-15 14:00:00,
2013-05-15 10:39:00,60.0,44.0,-100.00,South,176,3.0,18.0,54,-99.99,,,-99.99,,2013-05-15 14:39:00,
2013-05-15 10:52:00,60.0,44.0,-100.00,South,176,3.0,18.0,54,-99.99,,,-99.99,,2013-05-15 14:52:00,
2013-05-15 10:59:00,60.0,44.0,-100.00,South,176,3.0,18.0,54,-99.99,,,-99.99,,2013-05-15 14:59:00,
2013-05-15 11:00:00,60.0,49.0,-100.00,SSW,200,14.0,21.0,67,-99.99,,,-99.99,,2013-05-15 15:00:00,
2013-05-15 11:29:00,60.0,49.0,-100.00,SSW,200,14.0,21.0,67,-99.99,,,-99.99,,2013-05-15 15:29:00,
2013-05-15 11:40:00,60.0,49.0,-100.00,SSW,200,14.0,21.0,67,-99.99,,,-99.99,,2013-05-15 15:40:00,
2013-05-15 12:00:00,60.0,52.0,-100.00,SSW,207,6.0,20.0,73,-99.99,,,-99.99,,2013-05-15 16:00:00,
2013-05-15 12:39:00,60.0,52.0,-100.00,SSW,207,6.0,20.0,73,-99.99,,,-99.99,,2013-05-15 16:39:00,
2013-05-15 12:51:00,60.0,52.0,-100.00,SSW,207,6.0,20.0,73,-99.99,,,-99.99,,2013-05-15 16:51:00,
2013-05-15 13:00:00,60.0,52.0,-100.00,SSE,158,9.0,-999.0,75,-99.99,,,-99.99,,2013-05-15 17:00:00,
2013-05-15 13:49:00,60.0,52.0,-100.00,SSE,158,9.0,-999.0,75,-99.99,,,-99.99,,2013-05-15 17:49:00,
2013-05-15 13:59:00,60.0,52.0,-100.00,SSE,158,9.0,-999.0,75,-99.99,,,-99.99,,2013-05-15 17:59:00,
2013-05-15 14:00:00,64.0,54.0,-100.00,ESE,119,3.0,-999.0,70,-99.99,,,-99.99,,2013-05-15 18:00:00,
2013-05-15 14:28:00,64.0,54.0,-100.00,ESE,119,3.0,-999.0,70,-99.99,,,-99.99,,2013-05-15 18:28:00,
2013-05-15 14:38:00,64.0,54.0,-100.00,ESE,119,3.0,-999.0,70,-99.99,,,-99.99,,2013-05-15 18:38:00,
2013-05-15 15:00:00,61.0,54.0,-100.00,South,187,5.0,-999.0,77,-99.99,,,-99.99,,2013-05-15 19:00:00,
2013-05-15 15:31:00,61.0,54.0,-100.00,South,187,5.0,-999.0,77,-99.99,,,-99.99,,2013-05-15 19:31:00,
2013-05-15 15:39:00,61.0,54.0,-100.00,South,187,5.0,-999.0,77,-99.99,,,-99.99,,2013-05-15 19:39:00,
2013-05-15 16:40:00,63.0,54.0,-100.00,South,172,5.0,-999.0,73,-99.99,,,-99.99,,2013-05-15 20:40:00,
2013-05-15 16:47:00,63.0,54.0,-100.00,South,172,5.0,-999.0,73,-99.99,,,-99.99,,2013-05-15 20:47:00,
2013-05-15 17:00:00,66.0,55.0,-100.00,South,180,8.0,-999.0,68,-99.99,,,-99.99,,2013-05-15 21:00:00,
2013-05-15 17:28:00,66.0,55.0,-100.00,South,180,8.0,-999.0,68,-99.99,,,-99.99,,2013-05-15 21:28:00,
2013-05-15 17:42:00,66.0,55.0,-100.00,South,180,8.0,-999.0,68,-99.99,,,-99.99,,2013-05-15 21:42:00,
2013-05-15 18:30:00,71.0,55.0,-100.00,SE,136,3.0,-999.0,58,-99.99,,,-99.99,,2013-05-15 22:30:00,
2013-05-15 18:42:00,71.0,55.0,-100.00,SE,136,3.0,-999.0,58,-99.99,,,-99.99,,2013-05-15 22:42:00,
2013-05-15 18:52:00,71.0,55.0,-100.00,SE,136,3.0,-999.0,58,-99.99,,,-99.99,,2013-05-15 22:52:00,
2013-05-15 19:00:00,68.0,56.0,-100.00,SSE,166,3.0,-999.0,65,-99.99,,,-99.99,,2013-05-15 23:00:00,
2013-05-15 19:30:00,68.0,56.0,-100.00,SSE,166,3.0,-999.0,65,-99.99,,,-99.99,,2013-05-15 23:30:00,
2013-05-15 19:40:00,68.0,56.0,-100.00,SSE,166,3.0,-999.0,65,-99.99,,,-99.99,,2013-05-15 23:40:00,
2013-05-15 19:50:00,68.0,56.0,-100.00,SSE,166,3.0,-999.0,65,-99.99,,,-99.99,,2013-05-15 23:50:00,
2013-05-15 20:27:00,65.0,56.0,-100.00,SSW,194,0.0,-999.0,72,-99.99,,,-99.99,,2013-05-16 00:27:00,
2013-05-15 20:37:00,65.0,56.0,-100.00,SSW,194,0.0,-999.0,72,-99.99,,,-99.99,,2013-05-16 00:37:00,
2013-05-15 20:52:00,65.0,56.0,-100.00,SSW,194,0.0,-999.0,72,-99.99,,,-99.99,,2013-05-16 00:52:00,
2013-05-15 20:58:00,65.0,56.0,-100.00,SSW,194,0.0,-999.0,72,-99.99,,,-99.99,,2013-05-16 00:58:00,
2013-05-15 21:00:00,65.0,56.0,-100.00,WSW,244,1.0,-999.0,73,-99.99,,,-99.99,,2013-05-16 01:00:00,
2013-05-15 21:30:00,65.0,56.0,-100.00,WSW,244,1.0,-999.0,73,-99.99,,,-99.99,,2013-05-16 01:30:00,
2013-05-15 22:00:00,67.0,56.0,-100.00,SSW,200,0.0,-999.0,70,-99.99,,,-99.99,,2013-05-16 02:00:00,
2013-05-15 22:29:00,67.0,56.0,-100.00,SSW,200,0.0,-999.0,70,-99.99,,,-99.99,,2013-05-16 02:29:00,
2013-05-15 22:40:00,67.0,56.0,-100.00,SSW,200,0.0,-999.0,70,-99.99,,,-99.99,,2013-05-16 02:40:00,
2013-05-15 22:48:00,67.0,56.0,-100.00,SSW,200,0.0,-999.0,70,-99.99,,,-99.99,,2013-05-16 02:48:00,
2013-05-15 22:56:00,67.0,56.0,-100.00,SSW,200,0.0,-999.0,70,-99.99,,,-99.99,,2013-05-16 02:56:00,
2013-05-15 23:00:00,65.0,57.0,-100.00,WSW,238,0.0,-999.0,75,-99.99,,,-99.99,,2013-05-16 03:00:00,
2013-05-15 23:40:00,65.0,57.0,-100.00,WSW,238,0.0,-999.0,75,-99.99,,,-99.99,,2013-05-16 03:40:00,
2013-05-15 23:47:00,65.0,57.0,-100.00,WSW,238,0.0,-999.0,75,-99.99,,,-99.99,,2013-05-16 03:47:00,
2013-05-15 23:58:00,65.0,57.0,-100.00,WSW,238,0.0,-999.0,75,-99.99,,,-99.99,,2013-05-16 03:58:00,